Time;durP1;ratioP1;P1;durP2;ratioP2;P2;SDS_P1;SDS_P2;PMS_P1;PMS_P2;Temp;Humidity;BMP_temperature;BMP_pressure;BME280_temperature;BME280_humidity;BME280_pressure;Samples;Min_cycle;Max_cycle;Signal;HPM_P1;HPM_P2
2022/05/11 00:00:16;;;;;;;3.97;1.90;;;13.80;99.90;;;;;;5015750;28;20136;-79
2022/05/11 00:02:42;;;;;;;4.00;2.03;;;13.90;99.90;;;;;;5031100;28;20092;-79
2022/05/11 00:05:10;;;;;;;4.40;2.38;;;13.90;99.90;;;;;;5030562;28;20041;-79
2022/05/11 00:07:36;;;;;;;5.75;2.25;;;13.90;99.90;;;;;;5026092;28;20111;-79
2022/05/11 00:10:03;;;;;;;4.35;2.22;;;13.90;99.90;;;;;;5031824;28;20053;-80
2022/05/11 00:12:29;;;;;;;4.30;1.88;;;13.90;99.90;;;;;;5030193;28;20076;-79
2022/05/11 00:14:54;;;;;;;4.20;2.40;;;13.90;99.90;;;;;;5031846;28;20053;-80
2022/05/11 00:17:20;;;;;;;4.30;2.30;;;14.00;99.90;;;;;;5015648;28;20541;-80
2022/05/11 00:19:45;;;;;;;5.32;2.30;;;14.00;99.90;;;;;;5015087;28;20052;-79
2022/05/11 00:22:11;;;;;;;4.97;2.28;;;14.00;99.90;;;;;;5013295;28;20128;-79
2022/05/11 00:24:37;;;;;;;4.70;2.30;;;14.10;99.90;;;;;;5002933;28;20056;-79
2022/05/11 00:27:03;;;;;;;4.70;2.00;;;14.10;99.90;;;;;;5030629;28;20383;-80
2022/05/11 00:29:30;;;;;;;;;;;14.20;99.90;;;;;;5011081;28;20520;-79
2022/05/11 00:31:56;;;;;;;;;;;14.20;99.90;;;;;;5022386;28;19921;-80
2022/05/11 00:34:22;;;;;;;4.32;2.00;;;14.20;99.90;;;;;;5011578;28;20371;-80
2022/05/11 00:36:47;;;;;;;3.63;1.73;;;14.30;99.90;;;;;;5010487;28;20414;-79
2022/05/11 00:39:13;;;;;;;4.07;2.33;;;14.30;99.90;;;;;;5011714;28;20052;-79
2022/05/11 00:41:41;;;;;;;4.97;2.00;;;14.20;99.90;;;;;;5009484;28;20050;-79
2022/05/11 00:44:09;;;;;;;4.63;2.17;;;14.20;99.90;;;;;;4996491;28;20050;-79
2022/05/11 00:46:42;;;;;;;4.13;2.15;;;14.20;99.90;;;;;;4987110;28;20077;-79
2022/05/11 00:49:36;;;;;;;6.75;2.40;;;14.20;99.90;;;;;;5031592;28;20050;-79
2022/05/11 00:52:16;;;;;;;3.03;1.80;;;14.20;99.90;;;;;;5014433;28;20390;-80
2022/05/11 00:55:01;;;;;;;3.90;2.10;;;14.30;99.90;;;;;;5014393;28;20088;-79
2022/05/11 00:57:36;;;;;;;5.78;2.10;;;14.20;99.90;;;;;;5029800;28;20483;-81
2022/05/11 01:00:08;;;;;;;6.18;2.28;;;14.20;99.90;;;;;;5031110;28;20050;-80
2022/05/11 01:02:35;;;;;;;4.85;2.30;;;14.10;99.90;;;;;;5013815;28;20053;-79
2022/05/11 01:05:04;;;;;;;4.63;2.42;;;14.10;99.90;;;;;;5013206;28;20061;-79
2022/05/11 01:07:31;;;;;;;6.57;2.35;;;14.00;99.90;;;;;;5010190;28;20054;-81
2022/05/11 01:09:57;;;;;;;5.35;2.75;;;13.80;99.90;;;;;;5025309;28;20050;-79
2022/05/11 01:12:30;;;;;;;7.35;2.58;;;13.70;99.90;;;;;;5028934;28;20133;-80
2022/05/11 01:15:00;;;;;;;5.13;2.35;;;13.60;99.90;;;;;;5030919;28;20487;-79
2022/05/11 01:17:28;;;;;;;6.35;2.50;;;13.60;99.90;;;;;;5030889;28;20049;-79
2022/05/11 01:19:54;;;;;;;6.20;2.70;;;13.60;99.90;;;;;;5030399;28;20045;-79
2022/05/11 01:22:57;;;;;;;6.07;2.70;;;13.60;99.90;;;;;;5018825;28;20050;-80
2022/05/11 01:25:23;;;;;;;5.57;2.58;;;13.60;99.90;;;;;;4987011;28;20068;-80
2022/05/11 01:27:49;;;;;;;5.18;2.30;;;13.60;99.90;;;;;;5021526;28;20056;-79
2022/05/11 01:30:23;;;;;;;6.28;2.90;;;13.70;99.90;;;;;;5010460;28;20065;-78
2022/05/11 01:35:58;;;;;;;7.35;2.70;;;13.70;99.90;;;;;;5631765;23;20054;-80
2022/05/11 01:38:39;;;;;;;5.60;2.20;;;13.70;99.90;;;;;;5009162;28;20486;-79
2022/05/11 01:41:06;;;;;;;5.32;2.38;;;13.80;99.90;;;;;;4997185;28;20053;-80
2022/05/11 01:43:34;;;;;;;6.55;2.60;;;13.80;99.90;;;;;;5006081;28;20052;-79
2022/05/11 01:46:01;;;;;;;4.78;2.42;;;13.80;99.90;;;;;;5009417;28;20058;-79
2022/05/11 01:48:27;;;;;;;7.03;2.83;;;13.80;99.90;;;;;;4999449;28;20077;-79
2022/05/11 01:50:54;;;;;;;5.82;2.65;;;13.80;99.90;;;;;;4991279;28;20046;-79
2022/05/11 01:53:20;;;;;;;5.55;3.00;;;13.70;99.90;;;;;;4990915;28;20077;-79
2022/05/11 01:55:46;;;;;;;6.25;2.53;;;13.70;99.90;;;;;;4989933;28;20809;-79
2022/05/11 01:58:13;;;;;;;11.63;2.88;;;13.70;99.90;;;;;;4989695;28;20046;-79
2022/05/11 02:00:42;;;;;;;5.40;2.63;;;13.70;99.90;;;;;;4974999;28;20053;-79
2022/05/11 02:03:08;;;;;;;6.15;3.20;;;13.80;99.90;;;;;;4990377;28;20096;-79
2022/05/11 02:08:18;;;;;;;7.50;3.58;;;13.70;99.90;;;;;;4990509;28;20062;-79
2022/05/11 02:10:43;;;;;;;6.40;2.47;;;13.70;99.90;;;;;;4992971;28;20042;-79
2022/05/11 02:13:10;;;;;;;6.40;2.53;;;13.70;99.90;;;;;;5009230;28;20295;-79
2022/05/11 02:15:38;;;;;;;6.13;3.00;;;13.70;99.90;;;;;;5010285;28;20084;-79
2022/05/11 02:18:05;;;;;;;5.53;2.90;;;13.70;99.90;;;;;;5009100;28;20049;-79
2022/05/11 02:20:30;;;;;;;5.22;2.60;;;13.70;99.90;;;;;;4990368;28;20142;-79
2022/05/11 02:22:56;;;;;;;6.57;2.63;;;13.70;99.90;;;;;;5002293;28;20530;-79
2022/05/11 02:25:23;;;;;;;5.97;2.45;;;13.80;99.90;;;;;;5010157;28;20054;-79
2022/05/11 02:27:49;;;;;;;;;;;13.70;99.90;;;;;;4998356;28;20137;-79
2022/05/11 02:30:19;;;;;;;4.95;2.40;;;13.70;99.90;;;;;;4990041;28;19972;-79
2022/05/11 02:32:44;;;;;;;7.40;2.63;;;13.60;99.90;;;;;;4990352;28;20042;-79
2022/05/11 02:35:13;;;;;;;5.88;2.28;;;13.60;99.90;;;;;;4989595;28;20073;-79
2022/05/11 02:37:45;;;;;;;4.18;2.22;;;13.60;99.90;;;;;;5004421;28;20342;-79
2022/05/11 02:40:13;;;;;;;5.75;2.42;;;13.50;99.90;;;;;;5009492;28;20054;-79
2022/05/11 02:42:39;;;;;;;5.50;2.30;;;13.50;99.90;;;;;;5008404;28;20089;-79
2022/05/11 02:45:06;;;;;;;4.85;2.13;;;13.50;99.90;;;;;;4996995;28;20093;-79
2022/05/11 02:47:32;;;;;;;4.75;1.92;;;13.50;99.90;;;;;;4977626;28;20054;-79
2022/05/11 02:49:58;;;;;;;3.88;2.03;;;13.60;99.90;;;;;;5009296;28;20104;-79
2022/05/11 02:52:24;;;;;;;4.53;2.35;;;13.50;99.90;;;;;;4991674;28;20050;-80
2022/05/11 02:54:49;;;;;;;6.03;2.58;;;13.60;99.90;;;;;;4998680;28;20046;-79
2022/05/11 02:57:16;;;;;;;3.78;1.98;;;13.60;99.90;;;;;;4988326;28;20101;-79
2022/05/11 02:59:43;;;;;;;7.53;2.60;;;13.50;99.90;;;;;;4989630;28;20065;-79
2022/05/11 03:02:09;;;;;;;3.90;2.10;;;13.60;99.90;;;;;;5008655;28;20449;-80
2022/05/11 03:04:35;;;;;;;4.30;1.90;;;13.50;99.90;;;;;;4994941;28;20767;-79
2022/05/11 03:07:00;;;;;;;3.60;2.05;;;13.50;99.90;;;;;;4998108;28;20128;-79
2022/05/11 03:09:26;;;;;;;6.35;2.20;;;13.50;99.90;;;;;;4995265;28;20042;-79
2022/05/11 03:11:52;;;;;;;5.07;2.55;;;13.50;99.90;;;;;;5002931;28;20053;-79
2022/05/11 03:14:18;;;;;;;;;;;13.50;99.90;;;;;;5012411;28;20565;-79
2022/05/11 03:16:44;;;;;;;6.68;2.03;;;13.50;99.90;;;;;;5005009;28;20008;-79
2022/05/11 03:19:09;;;;;;;5.72;2.42;;;13.50;99.90;;;;;;5012656;28;20085;-80
2022/05/11 03:21:35;;;;;;;6.15;2.33;;;13.50;99.90;;;;;;5012632;28;20049;-80
2022/05/11 03:24:01;;;;;;;5.45;2.17;;;13.50;99.90;;;;;;4992414;28;20046;-80
2022/05/11 03:26:27;;;;;;;4.93;2.15;;;13.50;99.90;;;;;;5011570;28;20442;-79
2022/05/11 03:28:53;;;;;;;8.40;2.50;;;13.50;99.90;;;;;;4993871;28;20108;-79
2022/05/11 03:31:19;;;;;;;7.15;2.38;;;13.50;99.90;;;;;;5000080;28;20046;-80
2022/05/11 03:36:29;;;;;;;5.38;2.15;;;13.50;99.90;;;;;;5012480;28;20119;-79
2022/05/11 03:38:55;;;;;;;4.30;2.28;;;13.50;99.90;;;;;;5012116;28;20049;-79
2022/05/11 03:41:22;;;;;;;3.00;2.00;;;13.50;99.90;;;;;;4994367;28;20143;-79
2022/05/11 03:43:47;;;;;;;5.43;2.20;;;13.50;99.90;;;;;;5012624;28;20056;-79
2022/05/11 03:46:13;;;;;;;4.00;2.10;;;13.70;99.90;;;;;;4996172;28;20056;-79
2022/05/11 03:48:39;;;;;;;3.45;1.90;;;13.60;99.90;;;;;;4996742;28;20140;-79
2022/05/11 03:51:05;;;;;;;4.53;2.17;;;13.60;99.90;;;;;;5011990;28;20066;-80
2022/05/11 03:53:31;;;;;;;;;;;13.60;99.90;;;;;;5012345;28;20129;-79
2022/05/11 03:55:57;;;;;;;6.05;2.50;;;13.60;99.90;;;;;;5011982;28;20027;-79
2022/05/11 03:58:23;;;;;;;5.30;2.30;;;13.60;99.90;;;;;;5012914;28;20216;-79
2022/05/11 04:00:49;;;;;;;6.15;2.15;;;13.60;99.90;;;;;;4995434;28;20487;-80
2022/05/11 04:03:14;;;;;;;4.95;2.40;;;13.70;99.90;;;;;;5011956;28;20052;-79
2022/05/11 04:05:40;;;;;;;6.25;2.60;;;13.70;99.90;;;;;;5011512;28;20049;-79
2022/05/11 04:08:06;;;;;;;6.18;2.35;;;13.70;99.90;;;;;;5011057;28;20511;-80
2022/05/11 04:10:32;;;;;;;5.07;2.25;;;13.70;99.90;;;;;;5011052;28;20067;-79
2022/05/11 04:13:00;;;;;;;5.18;2.30;;;13.70;99.90;;;;;;5012042;28;20466;-79
2022/05/11 04:15:25;;;;;;;5.07;2.20;;;13.70;99.90;;;;;;5011869;28;20488;-79
2022/05/11 04:17:51;;;;;;;6.05;2.47;;;13.70;99.90;;;;;;5011620;28;20050;-80
2022/05/11 04:20:18;;;;;;;5.50;2.30;;;13.70;99.90;;;;;;4995718;28;20065;-79
2022/05/11 04:22:44;;;;;;;5.07;2.40;;;13.70;99.90;;;;;;5011472;28;20077;-79
2022/05/11 04:25:14;;;;;;;5.53;2.45;;;13.70;99.90;;;;;;5011748;28;20109;-81
2022/05/11 04:27:40;;;;;;;6.22;2.50;;;13.60;99.90;;;;;;5010977;28;20450;-79
2022/05/11 04:30:07;;;;;;;4.35;2.13;;;13.60;99.90;;;;;;5011402;28;20124;-81
2022/05/11 04:32:33;;;;;;;5.97;2.65;;;13.60;99.90;;;;;;4995550;28;20061;-79
2022/05/11 04:34:59;;;;;;;5.85;2.25;;;13.70;99.90;;;;;;5011732;28;20042;-80
2022/05/11 04:37:24;;;;;;;6.15;2.70;;;13.70;99.90;;;;;;5006433;28;20139;-79
2022/05/11 04:39:51;;;;;;;8.77;2.45;;;13.80;99.90;;;;;;5005724;28;20050;-79
2022/05/11 04:42:16;;;;;;;7.15;2.90;;;13.80;99.90;;;;;;5009108;28;20058;-79
2022/05/11 04:44:42;;;;;;;4.93;2.50;;;13.90;99.90;;;;;;4994527;28;20052;-79
2022/05/11 04:47:10;;;;;;;5.80;2.58;;;13.90;99.90;;;;;;5011253;28;20054;-81
2022/05/11 04:49:36;;;;;;;6.20;2.65;;;13.90;99.90;;;;;;5011592;28;20184;-79
2022/05/11 04:52:08;;;;;;;8.40;2.95;;;13.90;99.90;;;;;;5010703;28;20406;-79
2022/05/11 04:54:39;;;;;;;8.40;3.20;;;14.00;99.90;;;;;;4994955;28;20052;-79
2022/05/11 04:57:05;;;;;;;6.40;3.22;;;14.00;99.90;;;;;;5009545;28;20494;-79
2022/05/11 04:59:32;;;;;;;12.52;3.83;;;14.00;99.90;;;;;;5011131;28;20045;-79
2022/05/11 05:01:59;;;;;;;10.02;4.88;;;14.00;99.90;;;;;;5011349;28;20442;-79
2022/05/11 05:04:27;;;;;;;11.40;4.78;;;14.10;99.90;;;;;;5011090;28;20101;-79
2022/05/11 05:06:52;;;;;;;9.32;4.68;;;14.10;99.90;;;;;;4993968;28;20586;-80
2022/05/11 05:09:18;;;;;;;8.90;5.03;;;14.20;99.90;;;;;;5011017;28;20530;-79
2022/05/11 05:11:44;;;;;;;12.73;5.22;;;14.20;99.90;;;;;;5008839;28;20045;-79
2022/05/11 05:14:11;;;;;;;8.20;4.35;;;14.20;99.90;;;;;;5010602;28;20494;-81
2022/05/11 05:16:37;;;;;;;10.68;4.85;;;14.30;99.90;;;;;;5011323;28;20058;-79
2022/05/11 05:19:03;;;;;;;10.20;5.10;;;14.30;99.90;;;;;;5011314;28;20052;-80
2022/05/11 05:21:29;;;;;;;12.95;5.40;;;14.40;99.90;;;;;;5009446;28;20569;-79
2022/05/11 05:23:55;;;;;;;15.13;5.10;;;14.40;99.90;;;;;;5010495;28;20045;-79
2022/05/11 05:26:20;;;;;;;8.05;4.55;;;14.50;99.90;;;;;;5009203;28;20502;-80
2022/05/11 05:31:31;;;;;;;11.25;4.50;;;14.60;99.90;;;;;;5004431;28;20060;-80
2022/05/11 05:34:00;;;;;;;7.93;3.97;;;14.60;99.90;;;;;;5009093;28;20125;-79
2022/05/11 05:36:28;;;;;;;7.32;4.13;;;14.70;99.90;;;;;;5007090;28;20053;-78
2022/05/11 05:38:55;;;;;;;7.85;3.92;;;14.70;99.90;;;;;;5004153;28;20057;-78
2022/05/11 05:41:21;;;;;;;7.80;4.18;;;14.70;99.90;;;;;;5009397;28;20145;-78
2022/05/11 05:43:46;;;;;;;9.55;4.53;;;14.70;99.90;;;;;;5011652;28;20538;-78
2022/05/11 05:46:14;;;;;;;9.95;4.57;;;14.70;99.90;;;;;;4990479;28;20050;-80
2022/05/11 05:48:40;;;;;;;10.63;5.05;;;14.70;99.90;;;;;;4974676;28;20061;-77
2022/05/11 05:51:08;;;;;;;10.02;4.90;;;14.80;99.90;;;;;;4997089;28;20046;-78
2022/05/11 05:53:35;;;;;;;10.35;4.68;;;14.80;99.90;;;;;;5009245;28;20042;-78
2022/05/11 05:56:01;;;;;;;13.43;5.63;;;14.80;99.90;;;;;;5003616;28;20133;-78
2022/05/11 05:58:27;;;;;;;;;;;14.80;99.90;;;;;;4999039;28;20096;-78
2022/05/11 06:00:53;;;;;;;8.15;4.05;;;14.90;99.90;;;;;;4990704;28;19925;-78
2022/05/11 06:03:20;;;;;;;;;;;14.90;99.90;;;;;;4991146;28;20065;-78
2022/05/11 06:05:46;;;;;;;7.60;3.53;;;15.00;99.90;;;;;;4999188;28;20259;-78
2022/05/11 06:08:15;;;;;;;8.52;3.13;;;15.10;99.90;;;;;;5009826;28;20057;-78
2022/05/11 06:10:43;;;;;;;5.85;3.00;;;15.10;99.90;;;;;;5009066;28;20053;-79
2022/05/11 06:13:09;;;;;;;8.40;3.38;;;15.10;99.90;;;;;;4993352;28;20081;-80
2022/05/11 06:15:35;;;;;;;;;;;15.20;99.90;;;;;;5010352;28;20617;-78
2022/05/11 06:18:02;;;;;;;8.02;3.42;;;15.20;99.90;;;;;;5010204;28;19929;-78
2022/05/11 06:20:27;;;;;;;7.90;2.88;;;15.30;99.90;;;;;;5009332;28;20056;-79
2022/05/11 06:22:53;;;;;;;7.75;3.20;;;15.30;99.90;;;;;;5009002;28;20520;-79
2022/05/11 06:25:20;;;;;;;8.07;3.05;;;15.30;99.90;;;;;;4984975;28;20057;-78
2022/05/11 06:27:46;;;;;;;5.28;2.45;;;15.40;99.90;;;;;;4991897;28;20046;-78
2022/05/11 06:30:13;;;;;;;6.55;2.28;;;15.50;99.90;;;;;;5007868;28;20118;-77
2022/05/11 06:32:38;;;;;;;5.25;2.10;;;15.50;99.90;;;;;;4993222;28;20077;-78
2022/05/11 06:35:05;;;;;;;8.15;2.40;;;15.60;99.90;;;;;;5009812;28;20606;-79
2022/05/11 06:37:31;;;;;;;5.25;2.50;;;15.60;99.90;;;;;;5008777;28;20093;-78
2022/05/11 06:39:58;;;;;;;2.65;1.52;;;15.60;99.90;;;;;;5009661;28;20101;-78
2022/05/11 06:42:24;;;;;;;5.03;2.25;;;15.60;99.90;;;;;;4991299;28;20056;-78
2022/05/11 06:44:50;;;;;;;4.50;2.10;;;15.60;99.90;;;;;;5008598;28;20054;-78
2022/05/11 06:47:20;;;;;;;5.53;2.00;;;15.60;99.90;;;;;;4998609;28;20468;-78
2022/05/11 06:49:46;;;;;;;3.90;2.22;;;15.60;99.90;;;;;;4990024;28;20050;-78
2022/05/11 06:52:12;;;;;;;5.10;2.00;;;15.60;99.90;;;;;;4989497;28;20058;-78
2022/05/11 07:00:06;;;;;;;3.45;1.95;;;15.80;99.90;;;;;;4989859;28;20058;-79
2022/05/11 07:02:34;;;;;;;;;;;15.80;99.90;;;;;;4991098;28;20136;-78
2022/05/11 07:05:00;;;;;;;7.45;2.00;;;15.90;99.90;;;;;;4992355;28;19925;-79
2022/05/11 07:07:26;;;;;;;;;;;16.00;99.90;;;;;;5008890;28;20118;-79
2022/05/11 07:09:51;;;;;;;4.03;1.95;;;16.10;99.90;;;;;;5008928;28;20378;-78
2022/05/11 07:12:17;;;;;;;3.35;1.90;;;16.20;99.90;;;;;;5008151;28;20058;-78
2022/05/11 07:14:49;;;;;;;4.57;1.80;;;16.30;99.90;;;;;;4992245;28;20042;-79
2022/05/11 07:17:30;;;;;;;3.97;1.30;;;16.30;99.90;;;;;;5009689;28;20132;-79
2022/05/11 07:19:57;;;;;;;7.05;1.40;;;16.50;99.90;;;;;;5009691;28;20052;-79
2022/05/11 07:22:24;;;;;;;4.15;1.25;;;16.60;99.90;;;;;;5008419;28;20038;-80
2022/05/11 07:24:49;;;;;;;3.25;1.38;;;16.60;99.90;;;;;;4993175;28;20200;-79
2022/05/11 07:27:17;;;;;;;3.03;1.48;;;16.50;99.90;;;;;;5006278;28;20132;-81
2022/05/11 07:29:43;;;;;;;5.43;1.38;;;16.40;99.90;;;;;;4999930;28;20053;-79
2022/05/11 07:32:09;;;;;;;5.90;1.73;;;16.50;99.90;;;;;;5009311;28;20064;-80
2022/05/11 07:34:35;;;;;;;3.05;1.30;;;16.50;99.90;;;;;;5008712;28;20116;-80
2022/05/11 07:37:01;;;;;;;5.63;1.60;;;16.70;99.90;;;;;;5008100;28;20483;-78
2022/05/11 07:39:26;;;;;;;2.28;1.30;;;16.80;99.90;;;;;;4992723;28;20046;-78
2022/05/11 07:41:55;;;;;;;4.93;1.60;;;16.90;99.90;;;;;;4991296;28;20081;-79
2022/05/11 07:44:21;;;;;;;7.78;1.70;;;17.00;99.90;;;;;;5009391;28;20085;-78
2022/05/11 07:46:47;;;;;;;;;;;17.10;99.60;;;;;;5008709;28;20586;-79
2022/05/11 07:49:13;;;;;;;5.07;1.30;;;17.10;99.60;;;;;;4992389;28;19928;-78
2022/05/11 07:51:41;;;;;;;4.60;1.25;;;17.20;99.50;;;;;;5004528;28;20436;-78
2022/05/11 07:54:07;;;;;;;5.20;1.58;;;17.30;98.30;;;;;;4987658;28;20046;-78
2022/05/11 08:02:02;;;;;;;4.38;1.73;;;17.60;95.50;;;;;;5045854;28;20590;-78
2022/05/11 08:04:28;;;;;;;2.40;0.90;;;17.60;95.20;;;;;;5009977;28;20133;-79
2022/05/11 08:06:53;;;;;;;;;;;17.60;94.00;;;;;;5034566;28;20050;-79
2022/05/11 08:09:19;;;;;;;2.47;1.10;;;17.60;94.00;;;;;;5012356;28;19975;-78
2022/05/11 08:11:47;;;;;;;;;;;17.60;94.10;;;;;;5009927;28;20064;-77
2022/05/11 08:14:14;;;;;;;2.33;1.00;;;17.60;92.50;;;;;;5011819;28;20012;-77
2022/05/11 08:16:41;;;;;;;1.92;0.90;;;17.50;91.60;;;;;;5003886;28;20065;-77
2022/05/11 08:19:07;;;;;;;1.98;1.00;;;17.40;92.00;;;;;;4992976;28;20487;-78
2022/05/11 08:21:33;;;;;;;;;;;17.30;92.30;;;;;;4996044;28;20493;-79
2022/05/11 08:24:00;;;;;;;3.80;0.93;;;17.30;91.20;;;;;;5008975;28;20052;-79
2022/05/11 08:26:26;;;;;;;4.95;1.17;;;17.40;91.20;;;;;;5010892;28;20049;-78
2022/05/11 08:28:52;;;;;;;2.80;0.80;;;17.30;91.80;;;;;;4985524;28;20089;-79
2022/05/11 08:34:03;;;;;;;1.73;0.90;;;17.50;90.50;;;;;;5000215;28;20080;-79
2022/05/11 08:36:30;;;;;;;2.42;0.80;;;17.50;90.30;;;;;;4993821;28;20062;-79
2022/05/11 08:38:58;;;;;;;2.03;0.70;;;17.50;89.60;;;;;;4991826;28;20496;-79
2022/05/11 08:41:28;;;;;;;3.80;1.00;;;17.50;90.20;;;;;;4990467;28;20114;-78
2022/05/11 08:44:21;;;;;;;1.50;0.73;;;17.50;87.70;;;;;;4991845;28;20054;-77
2022/05/11 08:47:06;;;;;;;2.50;1.15;;;17.50;86.40;;;;;;5006463;28;20645;-78
2022/05/11 08:49:53;;;;;;;4.53;0.90;;;17.40;86.40;;;;;;4995198;28;20053;-81
2022/05/11 08:52:32;;;;;;;0.75;0.60;;;17.50;86.90;;;;;;5010889;28;20443;-79
2022/05/11 08:55:06;;;;;;;3.83;1.00;;;17.40;88.80;;;;;;5011179;28;20060;-80
2022/05/11 08:57:33;;;;;;;1.33;0.65;;;17.70;86.20;;;;;;5010191;28;20057;-80
2022/05/11 09:00:04;;;;;;;3.20;1.00;;;17.70;84.10;;;;;;5003700;28;20515;-79
2022/05/11 09:02:55;;;;;;;1.95;0.90;;;17.90;85.10;;;;;;4987455;28;20111;-80
2022/05/11 09:05:26;;;;;;;3.58;0.70;;;17.90;83.80;;;;;;4991882;28;20567;-79
2022/05/11 09:07:53;;;;;;;5.15;1.05;;;18.00;85.90;;;;;;5005643;28;20141;-79
2022/05/11 09:10:28;;;;;;;5.68;1.10;;;18.10;84.00;;;;;;4991584;28;20049;-78
2022/05/11 09:13:04;;;;;;;3.97;0.60;;;18.20;82.00;;;;;;4990378;28;20118;-78
2022/05/11 09:15:51;;;;;;;1.90;0.68;;;18.20;83.70;;;;;;4992039;28;20058;-78
2022/05/11 09:18:17;;;;;;;2.13;0.88;;;18.10;83.00;;;;;;5007905;28;20084;-79
2022/05/11 09:20:44;;;;;;;;;;;18.10;82.20;;;;;;4971836;28;20776;-78
2022/05/11 09:23:10;;;;;;;1.55;0.82;;;18.10;82.40;;;;;;4999767;28;19922;-79
2022/05/11 09:25:36;;;;;;;;;;;18.10;78.60;;;;;;5010239;28;20509;-79
2022/05/11 09:28:24;;;;;;;1.38;0.80;;;18.10;78.50;;;;;;5001176;28;20230;-78
2022/05/11 09:31:11;;;;;;;0.85;0.68;;;18.10;77.90;;;;;;4993927;28;20422;-78
2022/05/11 09:34:02;;;;;;;2.50;0.80;;;18.00;77.60;;;;;;5010145;28;20407;-79
2022/05/11 09:36:42;;;;;;;3.75;1.15;;;17.90;78.30;;;;;;5008118;28;20057;-78
2022/05/11 09:39:16;;;;;;;3.20;0.95;;;18.00;78.90;;;;;;5007282;28;20123;-79
2022/05/11 09:41:48;;;;;;;1.55;0.60;;;18.10;76.20;;;;;;5005492;28;20105;-79
2022/05/11 09:44:27;;;;;;;1.50;0.63;;;18.20;75.00;;;;;;5005837;28;20065;-78
2022/05/11 09:46:54;;;;;;;8.27;0.90;;;18.20;74.40;;;;;;5025982;28;20081;-79
2022/05/11 09:49:20;;;;;;;0.50;0.40;;;18.30;73.20;;;;;;5003102;28;20482;-79
2022/05/11 09:51:45;;;;;;;1.95;0.68;;;18.40;72.50;;;;;;5006920;28;20056;-79
2022/05/11 09:54:32;;;;;;;;;;;18.50;73.80;;;;;;5007990;28;20050;-79
2022/05/11 09:57:13;;;;;;;2.65;0.90;;;18.60;72.30;;;;;;5006147;28;20129;-79
2022/05/11 09:59:40;;;;;;;3.13;0.73;;;18.70;71.60;;;;;;4991131;28;20057;-79
2022/05/11 10:02:32;;;;;;;2.45;0.80;;;18.60;70.80;;;;;;5004514;28;20050;-79
2022/05/11 10:05:04;;;;;;;1.50;0.70;;;18.60;70.50;;;;;;5006261;28;20050;-79
2022/05/11 10:07:39;;;;;;;4.78;0.68;;;18.50;70.90;;;;;;5008433;28;20121;-79
2022/05/11 10:10:12;;;;;;;1.88;0.90;;;18.60;71.70;;;;;;5007103;28;20135;-79
2022/05/11 10:12:41;;;;;;;7.47;0.95;;;18.60;70.30;;;;;;5005724;28;20046;-79
2022/05/11 10:24:08;;;;;;;0.70;0.70;;;18.90;71.50;;;;;;4998736;28;20471;-78
2022/05/11 10:27:06;;;;;;;2.03;0.88;;;19.00;71.20;;;;;;5004607;28;20041;-79
2022/05/11 10:29:53;;;;;;;1.48;0.60;;;19.00;70.40;;;;;;5006216;28;20058;-78
2022/05/11 10:32:25;;;;;;;3.20;0.95;;;19.10;69.90;;;;;;4990827;28;20276;-79
2022/05/11 10:34:57;;;;;;;2.75;1.08;;;19.20;70.70;;;;;;5006703;28;20491;-79
2022/05/11 10:37:25;;;;;;;1.48;0.73;;;19.20;70.30;;;;;;5007452;28;20049;-78
2022/05/11 10:40:15;;;;;;;2.40;0.77;;;19.30;69.70;;;;;;5004972;28;20132;-79
2022/05/11 10:42:48;;;;;;;1.63;0.77;;;19.30;67.00;;;;;;5005583;28;20536;-78
2022/05/11 10:45:26;;;;;;;2.42;0.82;;;19.20;68.00;;;;;;5008236;28;20174;-79
2022/05/11 10:48:30;;;;;;;4.18;0.85;;;19.30;68.40;;;;;;5007633;28;20049;-79
2022/05/11 10:51:09;;;;;;;6.25;1.10;;;19.30;68.30;;;;;;5005596;28;20483;-78
2022/05/11 10:54:05;;;;;;;4.00;1.58;;;19.30;67.70;;;;;;5006453;28;20097;-78
2022/05/11 10:56:50;;;;;;;2.00;0.50;;;19.40;67.50;;;;;;5007383;28;20049;-78
2022/05/11 10:59:30;;;;;;;5.68;1.15;;;19.40;67.70;;;;;;4997423;28;20120;-79
2022/05/11 11:02:23;;;;;;;2.30;0.70;;;19.40;68.40;;;;;;5000626;28;20053;-79
2022/05/11 11:05:28;;;;;;;3.55;0.90;;;19.50;68.10;;;;;;5004043;28;20139;-79
2022/05/11 11:08:16;;;;;;;3.17;0.70;;;19.60;68.00;;;;;;4988125;28;20054;-79
2022/05/11 11:11:05;;;;;;;2.10;0.70;;;19.70;68.30;;;;;;4996923;28;20395;-79
2022/05/11 11:14:00;;;;;;;2.38;0.85;;;19.80;69.00;;;;;;5001568;28;20451;-78
2022/05/11 11:16:38;;;;;;;4.18;1.00;;;19.90;67.80;;;;;;5003977;28;20073;-78
2022/05/11 11:19:06;;;;;;;1.02;0.70;;;20.10;68.10;;;;;;4995835;28;20065;-79
2022/05/11 11:21:33;;;;;;;4.28;0.55;;;20.10;68.10;;;;;;5007851;28;20050;-80
2022/05/11 11:24:22;;;;;;;0.70;0.50;;;20.20;66.40;;;;;;4998042;28;20442;-79
2022/05/11 11:27:06;;;;;;;1.58;0.70;;;20.30;65.50;;;;;;4988436;28;20492;-79
2022/05/11 11:29:36;;;;;;;1.67;0.80;;;20.30;65.20;;;;;;4991525;28;20058;-79
2022/05/11 11:32:11;;;;;;;4.93;1.05;;;20.30;65.50;;;;;;4996888;28;20974;-79
2022/05/11 11:34:48;;;;;;;2.25;0.70;;;20.40;65.50;;;;;;4995286;28;20496;-79
2022/05/11 11:37:32;;;;;;;3.92;0.98;;;20.50;64.00;;;;;;4994541;28;20109;-79
2022/05/11 11:39:58;;;;;;;2.95;1.05;;;20.50;65.40;;;;;;5005228;28;20060;-80
2022/05/11 11:42:37;;;;;;;2.83;0.75;;;20.60;64.30;;;;;;5003199;28;20042;-81
2022/05/11 11:45:06;;;;;;;0.55;0.55;;;20.70;65.00;;;;;;5006647;28;20066;-79
2022/05/11 11:48:00;;;;;;;2.95;1.00;;;20.80;64.70;;;;;;5003996;28;20046;-80
2022/05/11 11:50:53;;;;;;;7.07;0.85;;;20.90;64.30;;;;;;4994166;28;20054;-80
2022/05/11 11:53:24;;;;;;;2.78;0.80;;;21.10;63.40;;;;;;4993195;28;20061;-81
2022/05/11 11:55:51;;;;;;;2.53;1.05;;;21.20;63.50;;;;;;4987388;28;20153;-80
2022/05/11 11:58:27;;;;;;;3.22;1.02;;;21.30;63.70;;;;;;5002471;28;20521;-80
2022/05/11 12:01:01;;;;;;;3.35;0.90;;;21.50;63.90;;;;;;5011579;28;20068;-81
2022/05/11 12:03:32;;;;;;;4.03;0.95;;;21.60;63.20;;;;;;5012283;28;20060;-80
2022/05/11 12:15:01;;;;;;;1.92;0.93;;;21.70;62.60;;;;;;4997908;28;20058;-80
2022/05/11 12:17:30;;;;;;;3.78;0.73;;;22.50;61.80;;;;;;4992688;28;20156;-78
2022/05/11 12:19:59;;;;;;;3.30;0.65;;;22.60;60.10;;;;;;5000879;28;20062;-78
2022/05/11 12:22:25;;;;;;;4.35;1.02;;;22.80;60.30;;;;;;5011999;28;20077;-78
2022/05/11 12:25:12;;;;;;;6.00;0.85;;;22.80;58.60;;;;;;4999828;28;20085;-79
2022/05/11 12:27:38;;;;;;;3.47;0.80;;;22.70;59.10;;;;;;4994413;28;20058;-79
2022/05/11 12:30:06;;;;;;;1.15;0.63;;;22.90;61.50;;;;;;4975857;28;20046;-79
2022/05/11 12:32:35;;;;;;;2.75;0.60;;;23.30;59.70;;;;;;4998586;28;20054;-79
2022/05/11 12:35:18;;;;;;;1.27;0.50;;;23.50;59.00;;;;;;4994754;28;20132;-80
2022/05/11 12:38:00;;;;;;;3.05;0.63;;;23.80;57.10;;;;;;5010823;28;20073;-80
2022/05/11 12:40:28;;;;;;;0.85;0.50;;;23.90;55.90;;;;;;5008473;28;20684;-80
2022/05/11 12:42:59;;;;;;;0.90;0.60;;;24.00;56.10;;;;;;4991558;28;20046;-79
2022/05/11 12:45:38;;;;;;;1.15;0.52;;;24.10;57.30;;;;;;4992301;28;20058;-80
2022/05/11 12:48:05;;;;;;;1.73;0.60;;;24.30;56.70;;;;;;4997103;28;20054;-79
2022/05/11 12:50:34;;;;;;;1.25;0.50;;;24.40;56.20;;;;;;4999253;28;20069;-80
2022/05/11 12:53:28;;;;;;;3.17;0.90;;;24.50;55.10;;;;;;5011265;28;20056;-80
2022/05/11 12:56:08;;;;;;;3.15;0.70;;;24.50;54.70;;;;;;4990987;28;20054;-81
2022/05/11 12:58:35;;;;;;;4.72;0.68;;;24.50;55.10;;;;;;4992021;28;20046;-79
2022/05/11 13:01:04;;;;;;;2.80;1.05;;;24.70;55.20;;;;;;5008505;28;20136;-79
2022/05/11 13:03:34;;;;;;;3.50;0.68;;;24.90;54.90;;;;;;5011586;28;20478;-79
2022/05/11 13:06:10;;;;;;;4.32;0.73;;;25.10;53.20;;;;;;5010348;28;20045;-80
2022/05/11 13:08:43;;;;;;;3.72;0.80;;;25.20;53.70;;;;;;4994300;28;20049;-80
2022/05/11 13:11:14;;;;;;;2.85;0.82;;;25.20;51.70;;;;;;4998060;28;20061;-80
2022/05/11 13:13:42;;;;;;;2.35;0.70;;;24.80;51.60;;;;;;4991672;28;20082;-79
2022/05/11 13:16:15;;;;;;;2.35;0.75;;;24.70;53.60;;;;;;4991169;28;20058;-79
2022/05/11 13:18:43;;;;;;;3.55;1.30;;;24.90;53.10;;;;;;4991888;28;20073;-80
2022/05/11 13:21:10;;;;;;;1.88;0.60;;;25.10;51.90;;;;;;4990128;28;20062;-80
2022/05/11 13:23:50;;;;;;;2.70;0.65;;;25.30;52.30;;;;;;5010756;28;20062;-81
2022/05/11 13:26:41;;;;;;;1.95;0.70;;;25.50;50.70;;;;;;5008939;28;20124;-80
2022/05/11 13:29:27;;;;;;;2.85;0.73;;;25.60;49.80;;;;;;5008229;28;20054;-79
2022/05/11 13:32:24;;;;;;;4.53;0.70;;;25.60;50.00;;;;;;5010554;28;20100;-80
2022/05/11 13:34:49;;;;;;;3.03;0.68;;;25.80;50.10;;;;;;4998748;28;20054;-79
2022/05/11 13:37:25;;;;;;;1.92;0.82;;;26.00;50.60;;;;;;4993246;28;20054;-80
2022/05/11 13:39:51;;;;;;;3.28;0.75;;;26.10;50.60;;;;;;5012124;28;20053;-80
2022/05/11 13:42:23;;;;;;;4.30;1.10;;;26.40;49.60;;;;;;4992021;28;20050;-80
2022/05/11 13:44:52;;;;;;;10.20;1.10;;;26.50;49.60;;;;;;5010718;28;20097;-80
2022/05/11 13:50:31;;;;;;;5.95;0.98;;;26.50;49.20;;;;;;5008777;28;20064;-80
2022/05/11 13:52:59;;;;;;;4.28;1.20;;;26.50;48.70;;;;;;5007110;28;20173;-80